createdAt,value
2018-01-22T00:00:50.335Z,27.5
2018-01-22T00:01:50.439Z,27.5
2018-01-22T00:02:47.269Z,27.5
2018-01-22T00:03:50.509Z,27.5
2018-01-22T00:04:47.390Z,27.5
2018-01-22T00:05:47.419Z,27.5
2018-01-22T00:06:50.322Z,27.5
2018-01-22T00:07:47.829Z,27.5
2018-01-22T00:08:47.857Z,27.5
2018-01-22T00:09:47.591Z,27.5
2018-01-22T00:10:50.515Z,27.5
2018-01-22T00:11:47.633Z,27.5
2018-01-22T00:12:48.050Z,27.5
2018-01-22T00:13:48.126Z,27.5
2018-01-22T00:14:51.057Z,27.5
2018-01-22T00:15:47.840Z,27.5
2018-01-22T00:16:47.919Z,27.5
2018-01-22T00:17:48.264Z,27.5
2018-01-22T00:18:50.930Z,27.5
2018-01-22T00:19:48.110Z,27.5
2018-01-22T00:20:50.906Z,27.5
2018-01-22T00:21:48.306Z,27.5
2018-01-22T00:22:48.074Z,27.5
2018-01-22T00:23:51.264Z,27.5
2018-01-22T00:24:51.031Z,27.5
2018-01-22T00:25:48.550Z,27.5
2018-01-22T00:26:51.541Z,27.5
2018-01-22T00:27:48.695Z,27.5
2018-01-22T00:28:48.668Z,27.5
2018-01-22T00:29:51.357Z,27.5
2018-01-22T00:30:51.679Z,27.4
2018-01-22T00:31:48.885Z,27.5
2018-01-22T00:32:48.647Z,27.5
2018-01-22T00:33:48.661Z,27.5
2018-01-22T00:34:49.040Z,27.5
2018-01-22T00:35:51.899Z,27.5
2018-01-22T00:36:51.930Z,27.5
2018-01-22T00:37:51.989Z,27.5
2018-01-22T00:38:49.150Z,27.5
2018-01-22T00:39:52.108Z,27.5
2018-01-22T00:40:49.028Z,27.5
2018-01-22T00:41:49.000Z,27.5
2018-01-22T00:42:49.399Z,27.5
2018-01-22T00:43:52.364Z,27.5
2018-01-22T00:44:49.167Z,27.5
2018-01-22T00:45:52.463Z,27.5
2018-01-22T00:46:49.246Z,27.5
2018-01-22T00:47:49.623Z,27.5
2018-01-22T00:48:52.148Z,27.5
2018-01-22T00:49:52.536Z,27.5
2018-01-22T00:50:49.739Z,27.5
2018-01-22T00:51:52.644Z,27.5
2018-01-22T00:52:49.757Z,27.5
2018-01-22T00:53:52.349Z,27.4
2018-01-22T00:54:49.481Z,27.5
2018-01-22T00:55:52.383Z,27.5
2018-01-22T00:56:49.498Z,27.5
2018-01-22T00:57:52.740Z,27.5
2018-01-22T00:58:49.592Z,27.5
2018-01-22T00:59:52.520Z,27.5
2018-01-22T01:00:49.727Z,27.5
2018-01-22T01:01:52.936Z,27.5
2018-01-22T01:02:52.652Z,27.5
2018-01-22T01:03:52.996Z,27.5
2018-01-22T01:04:49.819Z,27.5
2018-01-22T01:05:50.193Z,27.5
2018-01-22T01:06:50.310Z,27.4
2018-01-22T01:07:53.169Z,27.5
2018-01-22T01:08:50.003Z,27.5
2018-01-22T01:09:50.392Z,27.5
2018-01-22T01:10:50.147Z,27.4
2018-01-22T01:11:50.593Z,27.5
2018-01-22T01:12:50.279Z,27.5
2018-01-22T01:13:53.186Z,27.4
2018-01-22T01:14:50.684Z,27.5
2018-01-22T01:15:50.473Z,27.5
2018-01-22T01:16:53.798Z,27.4
2018-01-22T01:17:50.709Z,27.5
2018-01-22T01:18:53.880Z,27.5
2018-01-22T01:19:53.913Z,27.4
2018-01-22T01:20:53.657Z,27.5
2018-01-22T01:21:50.864Z,27.5
2018-01-22T01:22:50.885Z,27.4
2018-01-22T01:23:51.239Z,27.5
2018-01-22T01:24:54.159Z,27.5
2018-01-22T01:25:54.167Z,27.5
2018-01-22T01:26:53.915Z,27.5
2018-01-22T01:27:51.146Z,27.5
2018-01-22T01:28:54.047Z,27.5
2018-01-22T01:29:51.268Z,27.5
2018-01-22T01:30:51.622Z,27.5
2018-01-22T01:31:51.339Z,27.5
2018-01-22T01:32:54.200Z,27.5
2018-01-22T01:33:51.381Z,27.5
2018-01-22T01:34:51.374Z,27.4
2018-01-22T01:35:54.614Z,27.5
2018-01-22T01:36:51.826Z,27.4
2018-01-22T01:37:54.773Z,27.4
2018-01-22T01:38:51.655Z,27.4
2018-01-22T01:39:52.004Z,27.4
2018-01-22T01:40:51.738Z,27.4
2018-01-22T01:41:51.837Z,27.4
2018-01-22T01:42:54.699Z,27.4
2018-01-22T01:43:51.885Z,27.4
2018-01-22T01:44:54.821Z,27.5
2018-01-22T01:45:55.062Z,27.4
2018-01-22T01:46:54.827Z,27.4
2018-01-22T01:47:52.093Z,27.4
2018-01-22T01:48:52.380Z,27.4
2018-01-22T01:49:52.196Z,27.4
2018-01-22T01:50:55.403Z,27.4
2018-01-22T01:51:52.613Z,27.4
2018-01-22T01:52:52.626Z,27.4
2018-01-22T01:53:52.287Z,27.4
2018-01-22T01:54:52.624Z,27.4
2018-01-22T01:55:52.405Z,27.4
2018-01-22T01:56:55.626Z,27.4
2018-01-22T01:57:52.464Z,27.4
2018-01-22T01:58:52.430Z,27.4
2018-01-22T01:59:52.530Z,27.4
2018-01-22T02:00:55.415Z,27.4
2018-01-22T02:01:52.637Z,27.4
2018-01-22T02:02:55.570Z,27.4
2018-01-22T02:03:52.792Z,27.4
2018-01-22T02:04:53.144Z,27.4
2018-01-22T02:05:53.204Z,27.4
2018-01-22T02:06:53.321Z,27.4
2018-01-22T02:07:53.055Z,27.4
2018-01-22T02:08:53.447Z,27.4
2018-01-22T02:09:53.607Z,27.4
2018-01-22T02:10:53.248Z,27.4
2018-01-22T02:11:53.275Z,27.3
2018-01-22T02:12:53.678Z,27.4
2018-01-22T02:13:53.749Z,27.4
2018-01-22T02:14:56.405Z,27.4
2018-01-22T02:15:56.465Z,27.4
2018-01-22T02:16:56.490Z,27.4
2018-01-22T02:17:53.640Z,27.3
2018-01-22T02:18:53.977Z,27.4
2018-01-22T02:19:53.633Z,27.4
2018-01-22T02:20:53.683Z,27.4
2018-01-22T02:21:56.919Z,27.4
2018-01-22T02:22:54.044Z,27.4
2018-01-22T02:23:53.731Z,27.3
2018-01-22T02:24:53.824Z,27.4
2018-01-22T02:25:54.156Z,27.4
2018-01-22T02:26:54.205Z,27.3
2018-01-22T02:27:53.943Z,27.4
2018-01-22T02:28:54.228Z,27.4
2018-01-22T02:29:54.294Z,27.4
2018-01-22T02:30:54.324Z,27.4
2018-01-22T02:31:54.050Z,27.4
2018-01-22T02:32:54.094Z,27.4
2018-01-22T02:33:54.137Z,27.4
2018-01-22T02:34:57.063Z,27.4
2018-01-22T02:35:54.586Z,27.4
2018-01-22T02:36:57.567Z,27.4
2018-01-22T02:37:54.375Z,27.4
2018-01-22T02:38:57.643Z,27.4
2018-01-22T02:39:57.306Z,27.4
2018-01-22T02:40:57.723Z,27.4
2018-01-22T02:41:57.866Z,27.4
2018-01-22T02:42:57.588Z,27.4
2018-01-22T02:43:54.720Z,27.4
2018-01-22T02:44:57.680Z,27.4
2018-01-22T02:45:54.877Z,27.4
2018-01-22T02:46:55.262Z,27.4
2018-01-22T02:47:55.024Z,27.4
2018-01-22T02:48:58.277Z,27.4
2018-01-22T02:49:57.952Z,27.4
2018-01-22T02:50:58.387Z,27.3
2018-01-22T02:51:55.208Z,27.4
2018-01-22T02:52:55.230Z,27.4
2018-01-22T02:53:55.255Z,27.3
2018-01-22T02:54:58.217Z,27.4
2018-01-22T02:55:55.357Z,27.4
2018-01-22T02:56:55.763Z,27.4
2018-01-22T02:57:55.563Z,27.4
2018-01-22T02:58:58.448Z,27.4
2018-01-22T02:59:58.492Z,27.4
2018-01-22T03:00:58.827Z,27.3
2018-01-22T03:01:55.666Z,27.4
2018-01-22T03:02:55.842Z,27.4
2018-01-22T03:03:55.782Z,27.4
2018-01-22T03:04:55.855Z,27.4
2018-01-22T03:05:55.901Z,27.4
2018-01-22T03:06:59.139Z,27.4
2018-01-22T03:07:56.036Z,27.4
2018-01-22T03:08:56.096Z,27.4
2018-01-22T03:09:58.954Z,27.4
2018-01-22T03:10:56.440Z,27.4
2018-01-22T03:11:59.133Z,27.4
2018-01-22T03:12:59.239Z,27.4
2018-01-22T03:13:59.593Z,27.4
2018-01-22T03:14:56.517Z,27.4
2018-01-22T03:15:56.619Z,27.4
2018-01-22T03:16:56.923Z,27.4
2018-01-22T03:17:59.888Z,27.3
2018-01-22T03:18:59.655Z,27.4
2018-01-22T03:20:00.113Z,27.4
2018-01-22T03:20:57.193Z,27.4
2018-01-22T03:21:57.302Z,27.4
2018-01-22T03:22:57.101Z,27.4
2018-01-22T03:23:57.418Z,27.4
2018-01-22T03:24:57.471Z,27.4
2018-01-22T03:26:00.421Z,27.4
2018-01-22T03:27:00.507Z,27.4
2018-01-22T03:27:57.378Z,27.4
2018-01-22T03:28:57.393Z,27.4
2018-01-22T03:30:00.667Z,27.4
2018-01-22T03:30:57.798Z,27.4
2018-01-22T03:31:57.537Z,27.4
2018-01-22T03:33:01.454Z,27.4
2018-01-22T03:33:57.754Z,27.4
2018-01-22T03:34:57.763Z,27.4
2018-01-22T03:35:58.146Z,27.4
2018-01-22T03:36:58.216Z,27.3
2018-01-22T03:37:57.907Z,27.4
2018-01-22T03:38:58.314Z,27.4
2018-01-22T03:40:01.290Z,27.4
2018-01-22T03:41:01.306Z,27.3
2018-01-22T03:41:58.162Z,27.4
2018-01-22T03:42:58.566Z,27.4
2018-01-22T03:43:58.192Z,27.4
2018-01-22T03:45:01.435Z,27.4
2018-01-22T03:46:01.475Z,27.4
2018-01-22T03:47:01.295Z,27.4
2018-01-22T03:47:58.730Z,27.3
2018-01-22T03:49:02.596Z,27.3
2018-01-22T03:49:58.476Z,27.4
2018-01-22T03:50:58.856Z,27.3
2018-01-22T03:52:01.430Z,27.4
2018-01-22T03:53:01.782Z,27.4
2018-01-22T03:53:58.627Z,27.4
2018-01-22T03:54:58.716Z,27.4
2018-01-22T03:55:58.973Z,27.4
2018-01-22T03:56:58.716Z,27.3
2018-01-22T03:57:58.818Z,27.4
2018-01-22T03:58:59.122Z,27.4
2018-01-22T04:00:02.104Z,27.3
2018-01-22T04:00:59.214Z,27.4
2018-01-22T04:02:02.219Z,27.4
2018-01-22T04:03:02.222Z,27.4
2018-01-22T04:03:59.093Z,27.4
2018-01-22T04:04:59.116Z,27.4
2018-01-22T04:06:02.091Z,27.4
2018-01-22T04:06:59.555Z,27.4
2018-01-22T04:07:59.287Z,27.4
2018-01-22T04:08:59.433Z,27.4
2018-01-22T04:10:02.673Z,27.4
2018-01-22T04:10:59.475Z,27.3
2018-01-22T04:12:02.724Z,27.4
2018-01-22T04:12:59.838Z,27.4
2018-01-22T04:13:59.880Z,27.4
2018-01-22T04:14:59.976Z,27.3
2018-01-22T04:16:00.084Z,27.3
2018-01-22T04:17:02.970Z,27.3
2018-01-22T04:17:59.780Z,27.3
2018-01-22T04:18:59.881Z,27.3
2018-01-22T04:19:59.904Z,27.3
2018-01-22T04:21:00.549Z,27.3
2018-01-22T04:22:03.225Z,27.3
2018-01-22T04:23:03.302Z,27.4
2018-01-22T04:24:03.287Z,27.4
2018-01-22T04:25:03.284Z,27.4
2018-01-22T04:26:00.178Z,27.4
2018-01-22T04:27:03.503Z,27.4
2018-01-22T04:28:00.582Z,27.3
2018-01-22T04:29:00.412Z,27.3
2018-01-22T04:30:00.450Z,27.4
2018-01-22T04:31:03.296Z,27.4
2018-01-22T04:32:04.353Z,27.4
2018-01-22T04:33:03.751Z,27.4
2018-01-22T04:34:03.781Z,27.4
2018-01-22T04:35:00.659Z,27.4
2018-01-22T04:36:03.810Z,27.4
2018-01-22T04:37:00.951Z,27.4
2018-01-22T04:38:01.383Z,27.4
2018-01-22T04:39:04.003Z,27.4
2018-01-22T04:40:03.769Z,27.4
2018-01-22T04:41:01.561Z,27.4
2018-01-22T04:42:01.392Z,27.3
2018-01-22T04:43:01.429Z,27.4
2018-01-22T04:44:01.588Z,27.3
2018-01-22T04:45:04.108Z,27.3
2018-01-22T04:46:04.509Z,27.3
2018-01-22T04:47:01.618Z,27.3
2018-01-22T04:48:02.397Z,27.3
2018-01-22T04:49:01.534Z,27.3
2018-01-22T04:50:02.210Z,27.3
2018-01-22T04:51:01.509Z,27.3
2018-01-22T04:52:04.386Z,27.3
2018-01-22T04:53:04.766Z,27.3
2018-01-22T04:54:01.523Z,27.3
2018-01-22T04:55:01.943Z,27.3
2018-01-22T04:56:04.537Z,27.3
2018-01-22T04:57:05.474Z,27.3
2018-01-22T04:58:02.076Z,27.3
2018-01-22T04:59:01.827Z,27.3
2018-01-22T05:00:05.086Z,27.3
2018-01-22T05:01:05.113Z,27.3
2018-01-22T05:02:04.823Z,27.3
2018-01-22T05:03:02.659Z,27.3
2018-01-22T05:04:02.152Z,27.3
2018-01-22T05:05:02.281Z,27.3
2018-01-22T05:06:05.460Z,27.3
2018-01-22T05:07:05.079Z,27.3
2018-01-22T05:08:02.615Z,27.3
2018-01-22T05:09:02.271Z,27.3
2018-01-22T05:10:02.991Z,27.3
2018-01-22T05:11:05.282Z,27.2
2018-01-22T05:12:05.659Z,27.3
2018-01-22T05:13:02.471Z,27.3
2018-01-22T05:14:05.710Z,27.3
2018-01-22T05:15:05.844Z,27.3
2018-01-22T05:16:05.553Z,27.3
2018-01-22T05:17:02.745Z,27.2
2018-01-22T05:18:03.150Z,27.3
2018-01-22T05:19:03.998Z,27.3
2018-01-22T05:20:02.935Z,27.3
2018-01-22T05:21:06.142Z,27.3
2018-01-22T05:22:03.083Z,27.3
2018-01-22T05:23:03.469Z,27.3
2018-01-22T05:24:03.043Z,27.3
2018-01-22T05:25:03.954Z,27.3
2018-01-22T05:26:03.206Z,27.3
2018-01-22T05:27:03.551Z,27.2
2018-01-22T05:28:03.647Z,27.2
2018-01-22T05:29:06.211Z,27.2
2018-01-22T05:30:03.975Z,27.2
2018-01-22T05:31:03.657Z,27.1
2018-01-22T05:32:03.406Z,27.2
2018-01-22T05:33:03.757Z,27.1
2018-01-22T05:34:06.398Z,27.1
2018-01-22T05:35:06.679Z,27.2
2018-01-22T05:36:03.878Z,27.2
2018-01-22T05:37:06.848Z,27.1
2018-01-22T05:38:07.021Z,27.2
2018-01-22T05:39:06.611Z,27.1
2018-01-22T05:40:06.942Z,27.2
2018-01-22T05:41:07.047Z,27.2
2018-01-22T05:42:03.870Z,27.3
2018-01-22T05:43:07.126Z,27.3
2018-01-22T05:44:07.806Z,27.3
2018-01-22T05:45:04.854Z,27.3
2018-01-22T05:46:05.197Z,27.4
2018-01-22T05:47:04.181Z,27.4
2018-01-22T05:48:07.460Z,27.5
2018-01-22T05:49:07.553Z,27.5
2018-01-22T05:50:08.154Z,27.5
2018-01-22T05:51:05.112Z,27.6
2018-01-22T05:52:07.706Z,27.6
2018-01-22T05:53:04.570Z,27.6
2018-01-22T05:54:04.621Z,27.6
2018-01-22T05:55:05.061Z,27.7
2018-01-22T06:02:51.689Z,27.6
2018-01-22T06:03:51.980Z,27.6
2018-01-22T06:04:51.738Z,27.6
2018-01-22T06:05:52.065Z,27.7
2018-01-22T06:06:54.951Z,27.6
2018-01-22T06:07:51.756Z,27.7
2018-01-22T06:08:56.243Z,27.8
2018-01-22T06:10:03.313Z,27.8
2018-01-22T06:11:12.471Z,27.8
2018-01-22T06:12:04.488Z,27.8
2018-01-22T06:13:06.341Z,27.9
2018-01-22T06:13:55.438Z,27.9
2018-01-22T06:14:52.267Z,27.9
2018-01-22T06:16:15.484Z,27.9
2018-01-22T06:17:15.161Z,27.9
2018-01-22T06:18:08.289Z,27.5
2018-01-22T06:18:52.294Z,27
2018-01-22T06:19:52.392Z,26.5
2018-01-22T06:20:55.234Z,26
2018-01-22T06:21:55.663Z,25.6
2018-01-22T06:22:52.888Z,25.3
2018-01-22T06:23:52.871Z,25
2018-01-22T06:24:56.453Z,24.8
2018-01-22T06:25:53.376Z,24.8
2018-01-22T06:26:52.689Z,24.9
2018-01-22T06:27:53.073Z,25.1
2018-01-22T06:28:52.775Z,25.3
2018-01-22T06:29:53.109Z,25.5
2018-01-22T06:30:55.735Z,25.7
2018-01-22T06:31:52.966Z,25.9
2018-01-22T06:32:52.901Z,26.1
2018-01-22T06:33:53.030Z,26.2
2018-01-22T06:34:56.198Z,26.3
2018-01-22T06:35:53.188Z,26.5
2018-01-22T06:36:53.063Z,26.5
2018-01-22T06:37:53.437Z,26.6
2018-01-22T06:38:53.539Z,26.7
2018-01-22T06:39:53.249Z,26.8
2018-01-22T06:40:56.455Z,26.9
2018-01-22T06:41:53.368Z,27
2018-01-22T06:42:53.461Z,27
2018-01-22T06:43:56.661Z,27.1
2018-01-22T06:44:56.671Z,27.1
2018-01-22T06:45:56.721Z,27.2
2018-01-22T06:46:53.566Z,27.3
2018-01-22T06:47:53.734Z,27.2
2018-01-22T06:48:56.968Z,27.3
2018-01-22T06:49:53.770Z,27.4
2018-01-22T06:50:57.051Z,27.4
2018-01-22T06:51:57.146Z,27.5
2018-01-22T06:52:56.788Z,27.5
2018-01-22T06:53:56.926Z,27.5
2018-01-22T06:54:54.030Z,27.5
2018-01-22T06:55:54.330Z,27.6
2018-01-22T06:56:54.355Z,27.6
2018-01-22T06:57:57.261Z,27.7
2018-01-22T06:58:54.026Z,27.7
2018-01-22T06:59:57.411Z,27.7
2018-01-22T07:00:54.223Z,27.8
2018-01-22T07:01:54.302Z,27.8
2018-01-22T07:02:54.808Z,27.8
2018-01-22T07:03:57.325Z,27.9
2018-01-22T07:04:57.669Z,27.9
2018-01-22T07:05:57.695Z,27.9
2018-01-22T07:06:54.918Z,27.9
2018-01-22T07:07:54.589Z,28
2018-01-22T07:08:54.661Z,28
2018-01-22T07:09:57.938Z,28
2018-01-22T07:10:55.204Z,28
2018-01-22T07:11:58.108Z,28.1
2018-01-22T07:12:55.293Z,28.1
2018-01-22T07:13:55.782Z,28.1
2018-01-22T07:14:55.530Z,28.1
2018-01-22T07:15:57.987Z,28.2
2018-01-22T07:16:55.308Z,28.2
2018-01-22T07:17:55.617Z,28.2
2018-01-22T07:18:58.157Z,28.2
2018-01-22T07:19:55.734Z,28.3
2018-01-22T07:20:55.426Z,28.3
2018-01-22T07:21:58.418Z,28.3
2018-01-22T07:22:55.986Z,28.3
2018-01-22T07:23:55.698Z,28.4
2018-01-22T07:24:55.698Z,28.4
2018-01-22T07:25:58.987Z,28.4
2018-01-22T07:26:56.532Z,28.4
2018-01-22T07:27:55.869Z,28.5
2018-01-22T07:28:55.902Z,28.5
2018-01-22T07:29:58.855Z,28.5
2018-01-22T07:30:56.332Z,28.5
2018-01-22T07:31:56.129Z,28.5
2018-01-22T07:32:56.124Z,28.6
2018-01-22T07:33:56.159Z,28.6
2018-01-22T07:34:59.076Z,28.6
2018-01-22T07:35:56.542Z,28.7
2018-01-22T07:36:59.456Z,28.7
2018-01-22T07:37:59.215Z,28.7
2018-01-22T07:38:56.411Z,28.7
2018-01-22T07:39:59.506Z,28.7
2018-01-22T07:40:56.596Z,28.7
2018-01-22T07:41:56.636Z,28.8
2018-01-22T07:42:59.874Z,28.7
2018-01-22T07:43:57.110Z,28.8
2018-01-22T07:45:00.093Z,28.8
2018-01-22T07:45:56.752Z,28.9
2018-01-22T07:47:00.298Z,28.9
2018-01-22T07:48:01.073Z,28.9
2018-01-22T07:48:57.096Z,28.9
2018-01-22T07:49:57.447Z,28.9
2018-01-22T07:51:00.534Z,28.9
2018-01-22T07:51:58.041Z,29
2018-01-22T07:52:58.239Z,29
2018-01-22T07:54:00.539Z,29
2018-01-22T07:54:57.356Z,29
2018-01-22T07:56:00.575Z,29
2018-01-22T07:56:57.384Z,29
2018-01-22T07:57:57.438Z,29
2018-01-22T07:58:57.570Z,29.1
2018-01-22T07:59:57.892Z,29.1
2018-01-22T08:00:57.587Z,29
2018-01-22T08:01:57.649Z,29.1
2018-01-22T08:02:57.717Z,29.1
2018-01-22T08:04:02.510Z,29.1
2018-01-22T08:05:01.719Z,29.2
2018-01-22T08:05:58.453Z,29.2
2018-01-22T08:07:01.114Z,29.2
2018-01-22T08:07:57.915Z,29.2
2018-01-22T08:08:57.888Z,29.2
2018-01-22T08:09:58.262Z,29.3
2018-01-22T08:10:58.519Z,29.3
2018-01-22T08:11:58.449Z,29.3
2018-01-22T08:12:58.047Z,29.3
2018-01-22T08:14:01.298Z,29.4
2018-01-22T08:15:01.398Z,29.3
2018-01-22T08:15:58.251Z,29.4
2018-01-22T08:17:01.507Z,29.4
2018-01-22T08:18:01.457Z,29.4
2018-01-22T08:19:01.252Z,29.4
2018-01-22T08:19:58.811Z,29.4
2018-01-22T08:20:58.911Z,29.4
2018-01-22T08:21:58.556Z,29.5
2018-01-22T08:23:01.478Z,29.5
2018-01-22T08:24:01.797Z,29.5
2018-01-22T08:24:58.585Z,29.5
2018-01-22T08:26:01.851Z,29.5
2018-01-22T08:26:59.136Z,29.5
2018-01-22T08:28:00.429Z,29.5
2018-01-22T08:28:59.344Z,29.6
2018-01-22T08:29:59.638Z,29.6
2018-01-22T08:30:59.246Z,29.5
2018-01-22T08:31:59.871Z,29.6
2018-01-22T08:33:01.959Z,29.6
2018-01-22T08:33:59.072Z,29.6
2018-01-22T08:35:03.052Z,29.7
2018-01-22T08:35:59.668Z,29.7
2018-01-22T08:36:59.264Z,29.7
2018-01-22T08:38:02.223Z,29.7
2018-01-22T08:39:03.372Z,29.7
2018-01-22T08:40:03.387Z,29.7
2018-01-22T08:40:59.566Z,29.8
2018-01-22T08:42:00.877Z,29.7
2018-01-22T08:43:03.383Z,29.8
2018-01-22T08:44:00.045Z,29.8
2018-01-22T08:45:00.031Z,29.8
2018-01-22T08:46:04.615Z,29.8
2018-01-22T08:47:02.687Z,29.8
2018-01-22T08:48:02.808Z,29.8
2018-01-22T08:49:03.835Z,29.8
2018-01-22T08:50:03.770Z,29.8
2018-01-22T08:51:03.705Z,29.8
2018-01-22T08:52:00.729Z,29.8
2018-01-22T08:53:03.097Z,29.8
2018-01-22T08:54:00.204Z,29.8
2018-01-22T08:55:03.483Z,29.9
2018-01-22T08:56:03.195Z,29.9
2018-01-22T08:57:03.898Z,29.9
2018-01-22T08:58:01.230Z,29.9
2018-01-22T08:59:01.017Z,29.9
2018-01-22T09:00:00.467Z,29.9
2018-01-22T09:01:04.726Z,29.9
2018-01-22T09:02:00.807Z,29.9
2018-01-22T09:03:00.582Z,29.9
2018-01-22T09:04:04.616Z,29.9
2018-01-22T09:05:01.771Z,30
2018-01-22T09:06:01.134Z,30
2018-01-22T09:07:01.202Z,30
2018-01-22T09:08:01.660Z,30
2018-01-22T09:09:04.240Z,30
2018-01-22T09:10:05.060Z,30
2018-01-22T09:11:04.637Z,30
2018-01-22T09:12:01.361Z,30.1
2018-01-22T09:13:05.710Z,30.1
2018-01-22T09:14:04.719Z,30.1
2018-01-22T09:15:04.292Z,30.1
2018-01-22T09:16:01.955Z,30.1
2018-01-22T09:17:01.353Z,30.1
2018-01-22T09:18:02.603Z,30.1
2018-01-22T09:19:01.863Z,30.1
2018-01-22T09:20:03.546Z,30.1
2018-01-22T09:21:02.585Z,30.2
2018-01-22T09:22:02.930Z,30.2
2018-01-22T09:23:02.720Z,30.2
2018-01-22T09:24:02.957Z,30.2
2018-01-22T09:25:03.342Z,30.2
2018-01-22T09:26:01.928Z,29.7
2018-01-22T09:27:02.058Z,30.2
2018-01-22T09:28:05.058Z,30.2
2018-01-22T09:29:05.519Z,30.3
2018-01-22T09:30:02.647Z,30.3
2018-01-22T09:31:02.660Z,30.3
2018-01-22T09:32:02.735Z,30.3
2018-01-22T09:33:02.807Z,30.3
2018-01-22T09:34:02.760Z,30.4
2018-01-22T09:35:02.834Z,30.4
2018-01-22T09:36:05.513Z,30.4
2018-01-22T09:37:06.977Z,30.4
2018-01-22T09:38:02.916Z,30.4
2018-01-22T09:39:03.810Z,30.4
2018-01-22T09:40:05.807Z,30.4
2018-01-22T09:41:06.221Z,30.4
2018-01-22T09:42:03.459Z,30.4
2018-01-22T09:43:03.355Z,30.4
2018-01-22T09:44:06.216Z,30.4
2018-01-22T09:45:03.097Z,30.4
2018-01-22T09:46:03.044Z,30.4
2018-01-22T09:47:03.386Z,30.4
2018-01-22T09:48:06.341Z,30.4
2018-01-22T09:49:06.328Z,30.4
2018-01-22T09:50:07.437Z,30.4
2018-01-22T09:51:06.621Z,30.4
2018-01-22T09:52:03.489Z,30.4
2018-01-22T09:53:11.544Z,30.4
2018-01-22T09:54:07.157Z,30.5
2018-01-22T09:55:03.499Z,30.5
2018-01-22T09:56:06.825Z,30.5
2018-01-22T09:57:03.814Z,30.4
2018-01-22T09:58:04.761Z,30.5
2018-01-22T09:59:04.186Z,30.5
2018-01-22T10:00:07.139Z,30.6
2018-01-22T10:01:08.520Z,30.5
2018-01-22T10:02:04.215Z,30.6
2018-01-22T10:03:04.973Z,30.6
2018-01-22T10:04:04.943Z,30.6
2018-01-22T10:05:06.964Z,30.7
2018-01-22T10:06:07.978Z,30.7
2018-01-22T10:07:04.780Z,30.6
2018-01-22T10:08:04.744Z,30.7
2018-01-22T10:09:07.534Z,30.7
2018-01-22T10:10:04.912Z,30.8
2018-01-22T10:11:04.678Z,30.8
2018-01-22T10:12:04.363Z,30.9
2018-01-22T10:13:07.918Z,30.9
2018-01-22T10:14:04.411Z,30.9
2018-01-22T10:15:08.508Z,30.9
2018-01-22T10:16:07.473Z,30.9
2018-01-22T10:17:05.711Z,30.9
2018-01-22T10:18:04.606Z,30.9
2018-01-22T10:19:04.581Z,31
2018-01-22T10:20:05.021Z,30.9
2018-01-22T10:21:05.465Z,31
2018-01-22T10:22:10.574Z,31
2018-01-22T10:23:05.654Z,30.9
2018-01-22T10:24:05.371Z,31
2018-01-22T10:25:05.861Z,31
2018-01-22T10:26:09.595Z,31
2018-01-22T10:27:05.400Z,31
2018-01-22T10:28:05.452Z,31
2018-01-22T10:29:08.020Z,31
2018-01-22T10:30:05.129Z,31
2018-01-22T10:31:05.847Z,31
2018-01-22T10:32:08.490Z,31
2018-01-22T10:33:05.585Z,31
2018-01-22T10:34:08.114Z,30.9
2018-01-22T10:35:07.429Z,30.9
2018-01-22T10:36:09.803Z,30.9
2018-01-22T10:37:09.120Z,31
2018-01-22T10:38:06.173Z,31
2018-01-22T10:39:08.801Z,31
2018-01-22T10:40:06.091Z,31
2018-01-22T10:41:09.504Z,31
2018-01-22T10:42:06.041Z,31
2018-01-22T10:43:09.015Z,31
2018-01-22T10:44:07.779Z,31
2018-01-22T10:45:06.010Z,31
2018-01-22T10:46:06.888Z,31
2018-01-22T10:47:07.028Z,31
2018-01-22T10:48:06.768Z,31
2018-01-22T10:49:06.069Z,31
2018-01-22T10:50:09.370Z,31
2018-01-22T10:51:06.493Z,31
2018-01-22T10:52:09.014Z,31.1
2018-01-22T10:53:08.043Z,31.1
2018-01-22T10:54:06.346Z,31.1
2018-01-22T10:55:09.154Z,31.1
2018-01-22T10:56:06.631Z,31.1
2018-01-22T10:57:07.783Z,31.1
2018-01-22T10:58:06.513Z,31.1
2018-01-22T10:59:06.444Z,31.1
2018-01-22T11:00:06.880Z,31.1
2018-01-22T11:01:07.054Z,31.1
2018-01-22T11:02:07.454Z,31.1
2018-01-22T11:03:06.936Z,31.1
2018-01-22T11:04:06.738Z,31.2
2018-01-22T11:05:09.504Z,31.2
2018-01-22T11:06:08.058Z,31.2
2018-01-22T11:07:07.057Z,31.2
2018-01-22T11:08:09.666Z,31.2
2018-01-22T11:09:08.005Z,31.2
2018-01-22T11:10:07.293Z,31.1
2018-01-22T11:11:11.099Z,31.2
2018-01-22T11:12:10.345Z,31.3
2018-01-22T11:13:10.251Z,31.4
2018-01-22T11:14:07.428Z,31.5
2018-01-22T11:15:10.764Z,31.7
2018-01-22T11:16:14.214Z,32
2018-01-22T11:17:14.119Z,32.6
2018-01-22T11:18:10.503Z,32.9
2018-01-22T11:19:10.557Z,33.2
2018-01-22T11:20:10.303Z,33.3
2018-01-22T11:21:07.888Z,33.4
2018-01-22T11:22:10.805Z,33.4
2018-01-22T11:23:10.770Z,33.4
2018-01-22T11:24:10.850Z,33.3
2018-01-22T11:25:07.722Z,33.3
2018-01-22T11:26:07.950Z,33.3
2018-01-22T11:27:08.134Z,33.2
2018-01-22T11:28:11.677Z,33
2018-01-22T11:29:07.912Z,32.9
2018-01-22T11:30:08.394Z,32.8
2018-01-22T11:31:11.646Z,32.8
2018-01-22T11:32:07.986Z,32.7
2018-01-22T11:33:11.376Z,32.7
2018-01-22T11:34:08.133Z,32.7
2018-01-22T11:35:12.173Z,32.6
2018-01-22T11:36:08.220Z,32.7
2018-01-22T11:37:08.235Z,32.7
2018-01-22T11:38:11.812Z,32.6
2018-01-22T11:39:11.588Z,32.6
2018-01-22T11:40:11.314Z,32.6
2018-01-22T11:41:11.977Z,32.6
2018-01-22T11:42:11.731Z,32.7
2018-01-22T11:43:08.893Z,32.7
2018-01-22T11:44:10.515Z,32.7
2018-01-22T11:45:12.139Z,32.7
2018-01-22T11:46:09.453Z,32.7
2018-01-22T11:47:09.746Z,32.8
2018-01-22T11:48:09.599Z,32.8
2018-01-22T11:49:12.781Z,32.8
2018-01-22T11:50:09.428Z,32.8
2018-01-22T11:51:13.294Z,32.9
2018-01-22T11:52:09.052Z,32.9
2018-01-22T11:53:09.326Z,32.8
2018-01-22T11:54:09.171Z,32.8
2018-01-22T11:55:09.316Z,32.8
2018-01-22T11:56:09.210Z,32.9
2018-01-22T11:57:12.490Z,32.9
2018-01-22T11:58:09.592Z,32.9
2018-01-22T11:59:10.294Z,32.9
2018-01-22T12:00:13.151Z,32.9
2018-01-22T12:01:12.291Z,33
2018-01-22T12:02:09.861Z,32.9
2018-01-22T12:03:10.046Z,32.9
2018-01-22T12:04:10.301Z,32.8
2018-01-22T12:05:09.955Z,32.7
2018-01-22T12:06:12.926Z,32.7
2018-01-22T12:07:10.298Z,32.7
2018-01-22T12:08:10.368Z,32.6
2018-01-22T12:09:13.154Z,32.6
2018-01-22T12:10:13.081Z,32.5
2018-01-22T12:11:10.391Z,32.5
2018-01-22T12:12:10.223Z,32.5
2018-01-22T12:13:10.504Z,32.4
2018-01-22T12:14:10.447Z,32.4
2018-01-22T12:15:10.189Z,32.4
2018-01-22T12:16:10.352Z,32.4
2018-01-22T12:17:13.538Z,32.4
2018-01-22T12:18:10.645Z,32.4
2018-01-22T12:19:10.453Z,32.4
2018-01-22T12:20:10.782Z,32.4
2018-01-22T12:21:10.579Z,32.4
2018-01-22T12:22:10.884Z,32.4
2018-01-22T12:23:10.858Z,32.4
2018-01-22T12:24:10.792Z,32.5
2018-01-22T12:25:11.438Z,32.5
2018-01-22T12:26:11.198Z,32.5
2018-01-22T12:27:11.102Z,32.6
2018-01-22T12:28:11.321Z,32.7
2018-01-22T12:29:11.145Z,32.8
2018-01-22T12:30:12.046Z,32.8
2018-01-22T12:31:14.109Z,32.9
2018-01-22T12:32:11.160Z,32.9
2018-01-22T12:33:11.896Z,32.9
2018-01-22T12:34:11.140Z,32.8
2018-01-22T12:35:11.480Z,32.9
2018-01-22T12:36:15.662Z,32.8
2018-01-22T12:37:11.423Z,32.9
2018-01-22T12:38:14.965Z,32.8
2018-01-22T12:39:14.725Z,32.8
2018-01-22T12:40:11.670Z,32.7
2018-01-22T12:41:14.841Z,32.7
2018-01-22T12:42:14.606Z,32.7
2018-01-22T12:43:11.770Z,32.6
2018-01-22T12:44:11.736Z,32.6
2018-01-22T12:45:12.060Z,32.5
2018-01-22T12:46:11.980Z,32.5
2018-01-22T12:47:12.148Z,32.4
2018-01-22T12:48:11.876Z,32.5
2018-01-22T12:49:13.061Z,32.4
2018-01-22T12:50:16.222Z,32.4
2018-01-22T12:51:12.328Z,32.4
2018-01-22T12:52:12.832Z,32.4
2018-01-22T12:53:14.986Z,32.5
2018-01-22T12:54:12.729Z,32.5
2018-01-22T12:55:12.447Z,32.5
2018-01-22T12:56:12.354Z,32.5
2018-01-22T12:57:15.184Z,32.6
2018-01-22T12:58:15.768Z,32.6
2018-01-22T12:59:15.428Z,32.6
2018-01-22T13:00:16.079Z,32.6
2018-01-22T13:01:12.435Z,32.7
2018-01-22T13:02:17.469Z,32.8
2018-01-22T13:03:12.935Z,32.8
2018-01-22T13:04:12.851Z,32.8
2018-01-22T13:05:12.737Z,32.8
2018-01-22T13:06:13.138Z,32.7
2018-01-22T13:07:13.130Z,32.6
2018-01-22T13:08:12.768Z,32.5
2018-01-22T13:09:12.951Z,32.3
2018-01-22T13:10:13.163Z,32.2
2018-01-22T13:11:13.732Z,32.1
2018-01-22T13:12:16.110Z,32.1
2018-01-22T13:13:16.717Z,32
2018-01-22T13:14:18.739Z,32
2018-01-22T13:15:13.298Z,32
2018-01-22T13:16:13.784Z,31.9
2018-01-22T13:17:16.988Z,31.9
2018-01-22T13:18:13.227Z,32
2018-01-22T13:19:16.525Z,32
2018-01-22T13:20:16.215Z,31.9
2018-01-22T13:21:16.645Z,31.6
2018-01-22T13:22:16.219Z,31.3
2018-01-22T13:23:13.546Z,30.9
2018-01-22T13:24:13.769Z,30.5
2018-01-22T13:25:13.878Z,30.3
2018-01-22T13:26:14.058Z,29.9
2018-01-22T13:27:13.989Z,29.5
2018-01-22T13:28:17.025Z,29.1
2018-01-22T13:29:14.008Z,28.7
2018-01-22T13:30:17.007Z,28.3